Time;durP1;ratioP1;P1;durP2;ratioP2;P2;SDS_P1;SDS_P2;PMS_P1;PMS_P2;Temp;Humidity;BMP_temperature;BMP_pressure;BME280_temperature;BME280_humidity;BME280_pressure;Samples;Min_cycle;Max_cycle;Signal;HPM_P1;HPM_P2
2022/07/18 00:00:41;;;;;;;7.57;5.05;;;28.80;91.00;;;;;;5111269;28;20416;-72
2022/07/18 00:03:08;;;;;;;5.97;4.60;;;28.80;91.00;;;;;;5113172;28;20096;-72
2022/07/18 00:05:36;;;;;;;6.53;4.95;;;28.80;91.00;;;;;;5111287;28;20047;-72
2022/07/18 00:08:04;;;;;;;10.63;4.72;;;28.80;91.00;;;;;;5112420;28;20040;-72
2022/07/18 00:10:31;;;;;;;5.57;4.55;;;28.80;91.00;;;;;;5112499;28;20158;-72
2022/07/18 00:12:59;;;;;;;6.63;5.07;;;28.80;91.00;;;;;;5112689;28;20122;-72
2022/07/18 00:15:27;;;;;;;5.18;4.68;;;28.80;91.00;;;;;;5112068;28;20054;-72
2022/07/18 00:17:54;;;;;;;7.13;4.75;;;28.80;91.00;;;;;;5112807;28;20046;-72
2022/07/18 00:20:22;;;;;;;5.05;4.35;;;28.80;91.00;;;;;;5112390;28;20039;-72
2022/07/18 00:22:49;;;;;;;5.35;4.85;;;28.80;91.10;;;;;;5112214;28;20077;-72
2022/07/18 00:25:17;;;;;;;4.88;4.20;;;28.70;91.00;;;;;;5111321;28;20128;-74
2022/07/18 00:27:44;;;;;;;7.35;5.00;;;28.70;91.10;;;;;;5111033;28;20815;-74
2022/07/18 00:30:12;;;;;;;7.65;4.72;;;28.70;91.10;;;;;;5110729;28;20485;-73
2022/07/18 00:32:40;;;;;;;6.18;5.57;;;28.70;91.40;;;;;;5110875;28;20054;-72
2022/07/18 00:35:08;;;;;;;5.80;4.13;;;28.70;91.20;;;;;;5111128;28;20075;-72
2022/07/18 00:37:36;;;;;;;8.43;5.03;;;28.60;91.20;;;;;;5111640;28;20044;-73
2022/07/18 00:40:05;;;;;;;6.95;5.05;;;28.60;91.20;;;;;;5111534;28;20112;-72
2022/07/18 00:42:32;;;;;;;5.72;5.13;;;28.60;91.20;;;;;;5112040;28;20043;-72
2022/07/18 00:45:00;;;;;;;7.35;5.00;;;28.60;91.20;;;;;;5111828;28;20493;-72
2022/07/18 00:47:27;;;;;;;5.85;5.03;;;28.60;91.10;;;;;;5093658;28;20048;-72
2022/07/18 00:49:55;;;;;;;6.97;4.20;;;28.60;91.00;;;;;;5111929;28;20401;-72
2022/07/18 00:52:22;;;;;;;4.95;4.45;;;28.60;91.00;;;;;;5111716;28;20051;-72
2022/07/18 00:54:50;;;;;;;5.38;4.25;;;28.60;91.00;;;;;;5111668;27;20047;-72
2022/07/18 00:57:17;;;;;;;6.70;4.53;;;28.60;90.90;;;;;;5111751;27;20047;-73
2022/07/18 01:02:32;;;;;;;6.50;5.05;;;28.50;90.70;;;;;;5111631;28;20036;-72
2022/07/18 01:05:00;;;;;;;5.43;4.10;;;28.50;90.60;;;;;;5111550;28;20066;-73
2022/07/18 01:07:27;;;;;;;7.57;4.43;;;28.60;90.60;;;;;;5111104;28;20047;-72
2022/07/18 01:09:55;;;;;;;5.18;4.15;;;28.60;90.50;;;;;;5110308;28;20451;-72
2022/07/18 01:12:22;;;;;;;5.20;3.65;;;28.50;90.50;;;;;;5111054;28;20040;-72
2022/07/18 01:14:50;;;;;;;4.90;4.10;;;28.50;90.50;;;;;;5111390;28;20055;-72
2022/07/18 01:17:19;;;;;;;5.07;4.55;;;28.50;90.50;;;;;;5111266;28;20043;-72
2022/07/18 01:19:46;;;;;;;6.07;4.78;;;28.50;90.50;;;;;;5111141;28;20567;-72
2022/07/18 01:22:16;;;;;;;6.82;4.10;;;28.50;90.60;;;;;;5110043;28;20401;-72
2022/07/18 01:24:45;;;;;;;5.65;3.72;;;28.50;90.60;;;;;;5111185;28;20122;-72
2022/07/18 01:27:21;;;;;;;5.45;4.30;;;28.50;90.70;;;;;;5111130;28;20039;-72
2022/07/18 01:29:50;;;;;;;5.28;4.05;;;28.50;90.80;;;;;;5110890;28;20044;-72
2022/07/18 01:32:19;;;;;;;5.63;4.45;;;28.50;90.90;;;;;;5110707;28;20571;-73
2022/07/18 01:34:47;;;;;;;5.20;4.30;;;28.50;91.10;;;;;;5111257;28;20084;-73
2022/07/18 01:37:15;;;;;;;5.60;3.90;;;28.50;91.30;;;;;;5111196;28;20047;-73
2022/07/18 01:39:44;;;;;;;6.75;4.13;;;28.50;91.50;;;;;;5108765;28;20057;-72
2022/07/18 01:42:13;;;;;;;5.97;4.30;;;28.40;91.60;;;;;;5110846;28;20094;-72
2022/07/18 01:44:42;;;;;;;7.65;4.43;;;28.40;91.90;;;;;;5109425;28;20051;-72
2022/07/18 01:47:11;;;;;;;6.93;5.03;;;28.40;92.20;;;;;;5110373;28;20134;-72
2022/07/18 01:49:40;;;;;;;8.85;4.90;;;28.40;92.40;;;;;;5109385;28;20104;-72
2022/07/18 01:52:07;;;;;;;5.57;4.80;;;28.40;92.70;;;;;;5111130;28;20112;-73
2022/07/18 01:54:37;;;;;;;7.88;5.18;;;28.30;93.00;;;;;;5110400;28;20048;-73
2022/07/18 01:57:06;;;;;;;5.70;4.82;;;28.30;93.30;;;;;;5110137;28;20148;-72
2022/07/18 01:59:34;;;;;;;7.82;4.80;;;28.30;93.40;;;;;;5108868;28;20050;-72
2022/07/18 02:02:04;;;;;;;9.35;5.60;;;28.30;93.50;;;;;;5110162;28;20040;-72
2022/07/18 02:07:21;;;;;;;5.60;4.68;;;28.30;93.70;;;;;;5110366;28;20116;-72
2022/07/18 02:09:49;;;;;;;6.63;5.13;;;28.30;93.70;;;;;;5110278;28;20039;-72
2022/07/18 02:12:17;;;;;;;11.32;5.88;;;28.30;93.70;;;;;;5108937;28;20035;-72
2022/07/18 02:14:44;;;;;;;7.65;5.00;;;28.30;93.80;;;;;;5108879;28;20042;-72
2022/07/18 02:17:12;;;;;;;5.85;4.53;;;28.30;93.80;;;;;;5110305;28;20476;-72
2022/07/18 02:19:39;;;;;;;9.73;5.32;;;28.30;94.00;;;;;;5109355;28;20043;-73
2022/07/18 02:22:07;;;;;;;7.97;5.68;;;28.20;94.10;;;;;;5109765;28;20039;-72
2022/07/18 02:24:35;;;;;;;10.02;5.55;;;28.20;94.20;;;;;;5108468;28;20119;-72
2022/07/18 02:27:03;;;;;;;7.22;4.70;;;28.20;94.40;;;;;;5109970;28;20044;-72
2022/07/18 02:29:30;;;;;;;8.40;5.90;;;28.20;94.50;;;;;;5092301;28;20532;-72
2022/07/18 02:31:58;;;;;;;9.75;5.65;;;28.10;94.70;;;;;;5091710;28;20040;-72
2022/07/18 02:34:25;;;;;;;7.18;5.45;;;28.20;94.90;;;;;;5108754;28;20074;-72
2022/07/18 02:36:53;;;;;;;9.38;5.88;;;28.10;94.90;;;;;;5109797;28;20427;-73
2022/07/18 02:39:21;;;;;;;8.02;5.55;;;28.10;95.10;;;;;;5107975;28;20047;-73
2022/07/18 02:41:48;;;;;;;9.95;6.15;;;28.10;95.20;;;;;;5109016;28;20142;-72
2022/07/18 02:44:16;;;;;;;5.55;4.85;;;28.10;95.30;;;;;;5109202;28;20046;-73
2022/07/18 02:46:44;;;;;;;6.43;5.78;;;28.00;95.50;;;;;;5109295;28;20043;-72
2022/07/18 02:49:26;;;;;;;7.82;5.63;;;28.00;95.60;;;;;;5109816;28;20054;-72
2022/07/18 02:51:57;;;;;;;7.72;6.65;;;28.00;95.70;;;;;;5109508;28;20058;-72
2022/07/18 02:54:26;;;;;;;11.27;6.15;;;28.00;95.70;;;;;;5113306;27;20507;-72
2022/07/18 02:56:54;;;;;;;8.55;6.72;;;28.00;95.70;;;;;;5112968;28;20047;-73
2022/07/18 02:59:22;;;;;;;14.20;6.70;;;27.90;95.70;;;;;;5112762;28;20516;-72
2022/07/18 03:01:50;;;;;;;8.55;5.82;;;27.80;95.70;;;;;;5112357;28;20051;-72
2022/07/18 03:04:18;;;;;;;7.95;5.50;;;27.90;95.70;;;;;;5113652;28;20040;-73
2022/07/18 03:06:47;;;;;;;8.05;5.60;;;27.80;95.70;;;;;;5112252;28;20051;-72
2022/07/18 03:09:15;;;;;;;8.13;6.15;;;27.80;95.70;;;;;;5112676;28;20046;-73
2022/07/18 03:11:43;;;;;;;7.70;5.90;;;27.70;95.60;;;;;;5113263;28;20552;-73
2022/07/18 03:14:10;;;;;;;7.32;5.68;;;27.70;95.70;;;;;;5095774;28;20055;-73
2022/07/18 03:16:38;;;;;;;6.53;5.53;;;27.70;95.70;;;;;;5094807;28;20043;-73
2022/07/18 03:19:05;;;;;;;8.25;6.45;;;27.70;95.60;;;;;;5093929;28;20047;-72
2022/07/18 03:21:33;;;;;;;7.22;6.40;;;27.70;95.60;;;;;;5112932;28;20046;-72
2022/07/18 03:24:01;;;;;;;7.72;5.72;;;27.70;95.60;;;;;;5112791;27;20052;-72
2022/07/18 03:26:28;;;;;;;9.82;6.38;;;27.70;95.50;;;;;;5112095;28;20138;-73
2022/07/18 03:28:56;;;;;;;7.80;6.75;;;27.70;95.50;;;;;;5095497;28;20071;-72
2022/07/18 03:31:24;;;;;;;6.90;5.45;;;27.70;95.60;;;;;;5095183;28;20048;-72
2022/07/18 03:33:51;;;;;;;10.80;5.80;;;27.60;95.50;;;;;;5112991;28;20047;-73
2022/07/18 03:36:19;;;;;;;8.65;6.00;;;27.70;95.60;;;;;;5113478;28;20051;-72
2022/07/18 03:38:47;;;;;;;6.30;5.32;;;27.70;95.60;;;;;;5113013;28;20075;-73
2022/07/18 03:41:14;;;;;;;6.88;5.20;;;27.70;95.50;;;;;;5111758;28;20051;-72
2022/07/18 03:43:42;;;;;;;8.23;5.65;;;27.70;95.30;;;;;;5111694;28;20055;-73
2022/07/18 03:46:09;;;;;;;9.68;6.25;;;27.70;95.20;;;;;;5113233;28;20050;-73
2022/07/18 03:48:37;;;;;;;7.93;5.80;;;27.70;95.20;;;;;;5112074;28;20043;-73
2022/07/18 03:51:04;;;;;;;14.38;5.82;;;27.70;95.10;;;;;;5113516;28;20035;-72
2022/07/18 03:53:33;;;;;;;5.80;5.18;;;27.80;95.00;;;;;;5112994;28;20396;-72
2022/07/18 03:56:00;;;;;;;7.38;4.80;;;27.80;95.00;;;;;;5113051;28;20048;-72
2022/07/18 03:58:28;;;;;;;6.85;5.30;;;27.80;95.00;;;;;;5112953;28;20043;-72
2022/07/18 04:00:56;;;;;;;8.57;5.25;;;27.80;94.80;;;;;;5113424;28;20063;-72
2022/07/18 04:03:23;;;;;;;7.38;5.47;;;27.90;94.80;;;;;;5111659;28;20139;-73
2022/07/18 04:05:51;;;;;;;7.80;5.43;;;27.90;94.70;;;;;;5110933;28;20138;-73
2022/07/18 04:08:19;;;;;;;10.70;5.18;;;28.00;94.60;;;;;;5113089;28;20046;-72
2022/07/18 04:10:46;;;;;;;5.63;4.93;;;28.00;94.70;;;;;;5112468;28;20050;-73
2022/07/18 04:13:14;;;;;;;8.23;5.80;;;28.10;94.60;;;;;;5077645;28;20043;-72
2022/07/18 04:15:41;;;;;;;6.88;5.28;;;28.20;94.50;;;;;;5112487;28;20120;-72
2022/07/18 04:18:09;;;;;;;7.25;5.10;;;28.20;94.50;;;;;;5112148;28;20052;-72
2022/07/18 04:20:38;;;;;;;7.47;4.82;;;28.30;94.40;;;;;;5111460;28;20050;-73
2022/07/18 04:23:08;;;;;;;5.13;4.55;;;28.30;94.40;;;;;;5111849;28;20044;-72
2022/07/18 04:25:39;;;;;;;8.40;5.10;;;28.40;94.40;;;;;;5112073;28;20770;-72
2022/07/18 04:28:08;;;;;;;12.73;5.55;;;28.40;94.40;;;;;;5110854;28;20086;-73
2022/07/18 04:30:37;;;;;;;7.78;5.22;;;28.40;94.50;;;;;;5112626;28;20052;-72
2022/07/18 04:33:07;;;;;;;7.45;4.75;;;28.50;94.50;;;;;;5111277;28;20097;-72
2022/07/18 04:35:39;;;;;;;10.95;5.53;;;28.60;94.30;;;;;;5093668;28;20044;-72
2022/07/18 04:38:08;;;;;;;10.18;4.80;;;28.70;94.20;;;;;;5110691;28;20505;-73
2022/07/18 04:40:37;;;;;;;8.40;4.93;;;28.80;94.00;;;;;;5111990;28;20083;-73
2022/07/18 04:43:05;;;;;;;6.47;5.03;;;28.90;93.80;;;;;;5112120;28;20584;-72
2022/07/18 04:45:35;;;;;;;6.20;4.85;;;29.00;93.80;;;;;;5110956;28;20050;-72
2022/07/18 04:48:06;;;;;;;6.93;4.55;;;29.10;93.70;;;;;;5112092;28;20134;-72
2022/07/18 04:50:33;;;;;;;9.52;4.90;;;29.10;93.30;;;;;;5110625;28;20134;-73
2022/07/18 04:53:01;;;;;;;6.75;4.90;;;29.20;93.20;;;;;;5110766;28;20513;-72
2022/07/18 04:55:29;;;;;;;7.28;4.35;;;29.30;93.10;;;;;;5111089;28;20047;-72
2022/07/18 04:57:56;;;;;;;6.85;4.35;;;29.40;92.70;;;;;;5111549;28;20131;-72
2022/07/18 05:00:26;;;;;;;7.00;4.40;;;29.40;92.30;;;;;;5111325;28;20070;-72
2022/07/18 05:02:56;;;;;;;5.40;4.45;;;29.50;92.20;;;;;;5109284;28;20039;-73
2022/07/18 05:05:26;;;;;;;6.18;4.15;;;29.60;92.50;;;;;;5110360;28;20396;-72
2022/07/18 05:07:56;;;;;;;8.13;4.53;;;29.70;92.30;;;;;;5093034;28;20058;-73
2022/07/18 05:10:24;;;;;;;6.00;4.45;;;29.80;92.30;;;;;;5110970;28;20059;-73
2022/07/18 05:12:54;;;;;;;7.43;4.75;;;29.80;92.30;;;;;;5110743;28;20043;-73
2022/07/18 05:15:23;;;;;;;25.08;7.65;;;29.90;92.00;;;;;;5110239;28;20402;-72
2022/07/18 05:17:51;;;;;;;9.75;5.85;;;30.00;91.90;;;;;;5093441;28;20166;-74
2022/07/18 05:20:20;;;;;;;6.70;4.90;;;30.10;91.90;;;;;;5111356;28;20484;-73
2022/07/18 05:22:48;;;;;;;6.72;4.30;;;30.10;91.80;;;;;;5110554;28;20039;-72
2022/07/18 05:25:15;;;;;;;7.07;4.45;;;30.20;91.20;;;;;;5109673;28;20047;-72
2022/07/18 05:27:43;;;;;;;5.38;3.90;;;30.30;90.70;;;;;;5110897;28;20032;-73
2022/07/18 05:30:12;;;;;;;5.78;4.10;;;30.40;90.20;;;;;;5110775;28;20043;-73
2022/07/18 05:32:42;;;;;;;6.78;4.18;;;30.40;89.60;;;;;;5111261;28;20539;-73
2022/07/18 05:35:10;;;;;;;6.57;4.38;;;30.50;89.40;;;;;;5109742;28;20075;-73
2022/07/18 05:37:39;;;;;;;5.60;4.40;;;30.60;89.60;;;;;;5110623;28;20056;-72
2022/07/18 05:40:09;;;;;;;11.38;4.30;;;30.70;89.80;;;;;;5110542;28;20171;-73
2022/07/18 05:42:36;;;;;;;6.45;4.10;;;30.70;88.20;;;;;;5110721;28;20050;-72
2022/07/18 05:45:18;;;;;;;6.03;3.80;;;30.90;87.90;;;;;;5109701;28;20052;-74
2022/07/18 05:47:46;;;;;;;10.45;4.93;;;31.00;87.40;;;;;;5111187;28;20077;-73
2022/07/18 05:50:13;;;;;;;8.57;4.50;;;30.90;87.60;;;;;;5110651;28;20051;-73
2022/07/18 05:52:40;;;;;;;6.55;3.88;;;31.00;87.10;;;;;;5109997;28;20154;-73
2022/07/18 05:55:09;;;;;;;10.00;4.65;;;31.00;85.60;;;;;;5110714;28;20378;-73
2022/07/18 05:57:36;;;;;;;5.57;3.55;;;31.00;85.40;;;;;;5110833;28;20094;-72
2022/07/18 06:00:07;;;;;;;7.28;3.75;;;31.20;85.20;;;;;;5109349;28;20485;-72
2022/07/18 06:02:37;;;;;;;6.95;4.15;;;31.20;85.10;;;;;;5109620;28;20061;-73
2022/07/18 06:05:07;;;;;;;7.05;3.88;;;31.30;85.20;;;;;;5109527;28;20043;-73
2022/07/18 06:07:52;;;;;;;6.88;3.45;;;31.40;84.50;;;;;;5111146;28;20156;-72
2022/07/18 06:10:21;;;;;;;7.15;3.97;;;31.50;85.00;;;;;;5108973;28;20043;-73
2022/07/18 06:12:49;;;;;;;9.65;4.75;;;31.60;84.50;;;;;;5110132;28;20144;-72
2022/07/18 06:15:18;;;;;;;9.50;4.20;;;31.70;83.80;;;;;;5110581;28;20153;-72
2022/07/18 06:17:46;;;;;;;9.50;3.60;;;31.80;83.40;;;;;;5110674;28;20512;-73
2022/07/18 06:20:13;;;;;;;6.30;3.80;;;31.90;83.20;;;;;;5109397;28;20055;-72
2022/07/18 06:22:41;;;;;;;7.65;3.97;;;31.90;82.60;;;;;;5108579;28;20504;-73
2022/07/18 06:25:09;;;;;;;7.40;3.47;;;32.00;82.40;;;;;;5110261;28;20053;-72
2022/07/18 06:27:37;;;;;;;5.78;4.00;;;32.00;83.10;;;;;;5110050;28;20039;-72
2022/07/18 06:30:07;;;;;;;6.90;3.83;;;32.20;82.00;;;;;;5110298;28;20047;-73
2022/07/18 06:32:35;;;;;;;5.30;3.80;;;32.20;82.00;;;;;;5109004;28;20040;-73
2022/07/18 06:35:03;;;;;;;7.85;4.05;;;32.30;81.60;;;;;;5110827;28;20046;-72
2022/07/18 06:37:30;;;;;;;4.68;3.47;;;32.40;81.30;;;;;;5110227;28;20485;-72
2022/07/18 06:39:58;;;;;;;6.32;4.15;;;32.40;81.20;;;;;;5110085;28;20051;-73
2022/07/18 06:42:28;;;;;;;5.60;3.58;;;32.50;81.10;;;;;;5092810;28;20111;-72
2022/07/18 06:44:56;;;;;;;7.97;3.58;;;32.50;80.80;;;;;;5091779;28;20044;-73
2022/07/18 06:47:24;;;;;;;5.40;4.43;;;32.70;81.30;;;;;;5108869;28;20036;-73
2022/07/18 06:49:51;;;;;;;6.10;3.50;;;32.80;81.20;;;;;;5108909;28;20051;-72
2022/07/18 06:52:19;;;;;;;6.18;4.03;;;32.70;80.10;;;;;;5109005;28;20040;-72
2022/07/18 06:54:47;;;;;;;5.82;3.58;;;32.90;80.10;;;;;;5110166;28;20050;-72
2022/07/18 06:57:15;;;;;;;6.32;3.97;;;33.00;80.20;;;;;;5091248;28;20047;-74
2022/07/18 06:59:43;;;;;;;6.88;3.20;;;33.10;80.20;;;;;;5109946;28;20524;-73
2022/07/18 07:02:16;;;;;;;8.43;3.47;;;33.20;79.80;;;;;;5108831;28;20458;-72
2022/07/18 07:04:43;;;;;;;4.93;3.53;;;33.20;79.40;;;;;;5108162;28;20525;-72
2022/07/18 07:07:11;;;;;;;5.72;3.95;;;33.20;79.30;;;;;;5109578;28;20047;-73
2022/07/18 07:09:39;;;;;;;4.22;3.25;;;33.20;79.10;;;;;;5109626;28;20047;-73
2022/07/18 07:12:07;;;;;;;5.18;3.15;;;33.30;78.40;;;;;;5091579;28;20040;-73
2022/07/18 07:14:36;;;;;;;4.28;3.78;;;33.40;78.30;;;;;;5107858;28;20393;-72
2022/07/18 07:17:05;;;;;;;7.45;2.95;;;33.40;76.60;;;;;;5108293;28;20112;-73
2022/07/18 07:19:32;;;;;;;7.85;3.45;;;33.30;75.70;;;;;;5109453;28;20044;-72
2022/07/18 07:22:00;;;;;;;8.50;3.53;;;33.40;75.60;;;;;;5109556;28;20054;-72
2022/07/18 07:24:27;;;;;;;6.68;2.92;;;33.40;75.20;;;;;;5109160;28;20032;-72
2022/07/18 07:26:55;;;;;;;6.88;4.03;;;33.50;75.20;;;;;;5108098;28;20058;-73
2022/07/18 07:29:23;;;;;;;8.10;3.20;;;33.70;74.60;;;;;;5107752;28;20047;-72
2022/07/18 07:31:51;;;;;;;7.05;3.45;;;33.80;74.60;;;;;;5109185;28;20092;-72
2022/07/18 07:34:18;;;;;;;10.10;3.92;;;33.80;75.10;;;;;;5108259;28;20047;-73
2022/07/18 07:36:46;;;;;;;7.35;3.28;;;33.80;75.70;;;;;;5109519;28;20039;-72
2022/07/18 07:39:14;;;;;;;4.57;3.00;;;33.90;75.00;;;;;;5111367;28;20142;-73
2022/07/18 07:41:41;;;;;;;7.13;4.47;;;34.00;75.00;;;;;;5111930;28;20048;-72
2022/07/18 07:44:09;;;;;;;8.50;3.80;;;34.10;74.90;;;;;;5111794;28;20054;-73
2022/07/18 07:46:36;;;;;;;7.30;3.05;;;34.00;74.80;;;;;;5113680;28;20599;-72
2022/07/18 07:49:04;;;;;;;5.45;3.42;;;34.00;74.80;;;;;;5113764;28;20041;-72
2022/07/18 07:51:32;;;;;;;9.15;3.25;;;34.00;74.30;;;;;;5111911;28;20044;-73
2022/07/18 07:54:02;;;;;;;9.57;2.78;;;34.10;72.90;;;;;;5113316;28;20050;-73
2022/07/18 07:56:30;;;;;;;5.00;2.80;;;34.20;73.10;;;;;;5113442;28;20059;-72
2022/07/18 07:58:57;;;;;;;5.03;2.80;;;34.20;73.40;;;;;;5112561;28;20524;-73
2022/07/18 08:01:25;;;;;;;6.20;3.10;;;34.30;73.40;;;;;;5113264;28;20043;-73
2022/07/18 08:03:53;;;;;;;6.03;3.58;;;34.20;73.30;;;;;;5113542;28;20091;-73
2022/07/18 08:06:20;;;;;;;4.47;2.95;;;34.20;73.40;;;;;;5113374;28;20130;-74
2022/07/18 08:08:48;;;;;;;6.10;2.95;;;34.30;73.40;;;;;;5112052;28;20040;-73
2022/07/18 08:11:17;;;;;;;8.48;3.28;;;34.30;73.20;;;;;;5110628;28;20048;-73
2022/07/18 08:13:44;;;;;;;5.63;3.72;;;34.30;72.80;;;;;;5113204;28;20055;-73
2022/07/18 08:16:12;;;;;;;5.75;2.92;;;34.30;73.10;;;;;;5094737;28;20158;-73
2022/07/18 08:18:40;;;;;;;5.38;3.63;;;34.40;72.90;;;;;;5111441;28;20046;-73
2022/07/18 08:21:07;;;;;;;3.78;3.00;;;34.40;72.50;;;;;;5111658;28;20047;-71
2022/07/18 08:23:36;;;;;;;7.47;3.47;;;34.50;72.20;;;;;;5110113;28;20043;-73
2022/07/18 08:26:04;;;;;;;8.68;3.60;;;34.60;72.20;;;;;;5110854;28;20055;-72
2022/07/18 08:28:32;;;;;;;6.95;3.20;;;34.60;72.00;;;;;;5093746;28;20402;-73
2022/07/18 08:30:59;;;;;;;6.57;3.15;;;34.70;71.90;;;;;;5093553;28;20052;-72
2022/07/18 08:33:27;;;;;;;8.32;3.22;;;34.70;71.70;;;;;;5110702;28;20051;-72
2022/07/18 08:35:55;;;;;;;5.63;3.00;;;34.80;71.40;;;;;;5112012;28;20039;-72
2022/07/18 08:38:22;;;;;;;8.65;3.70;;;34.80;70.80;;;;;;5111924;28;20139;-72
2022/07/18 08:40:53;;;;;;;8.23;3.80;;;34.70;70.40;;;;;;5112096;28;20397;-72
2022/07/18 08:43:24;;;;;;;5.20;3.50;;;34.50;70.40;;;;;;5112203;28;20046;-72
2022/07/18 08:45:56;;;;;;;7.07;3.45;;;34.60;70.60;;;;;;5093466;28;20047;-71
2022/07/18 08:48:24;;;;;;;8.25;3.38;;;34.40;70.50;;;;;;5112719;28;20048;-72
2022/07/18 08:50:55;;;;;;;7.07;3.28;;;34.60;70.40;;;;;;5093293;28;20044;-72
2022/07/18 08:53:24;;;;;;;5.88;3.38;;;34.60;70.30;;;;;;5110998;28;20506;-74
2022/07/18 08:55:51;;;;;;;8.27;3.67;;;34.60;70.10;;;;;;5112199;28;20553;-71
2022/07/18 08:58:19;;;;;;;5.80;3.10;;;34.80;70.90;;;;;;5110350;28;20093;-72
2022/07/18 09:01:07;;;;;;;6.85;2.75;;;34.80;70.10;;;;;;5111892;28;20044;-73
2022/07/18 09:03:34;;;;;;;4.32;3.00;;;34.60;70.00;;;;;;5093692;28;20359;-73
2022/07/18 09:06:07;;;;;;;9.80;3.45;;;34.70;70.20;;;;;;5112032;28;20043;-72
2022/07/18 09:08:35;;;;;;;8.07;3.55;;;34.80;70.10;;;;;;5110479;28;20056;-74
2022/07/18 09:11:04;;;;;;;7.32;3.53;;;34.80;70.00;;;;;;5111975;28;20048;-73
2022/07/18 09:13:34;;;;;;;7.68;3.08;;;34.90;70.50;;;;;;5111386;28;20409;-74
2022/07/18 09:16:08;;;;;;;6.93;3.00;;;34.90;70.20;;;;;;5112065;28;20654;-72
2022/07/18 09:18:45;;;;;;;6.47;3.83;;;35.00;69.80;;;;;;5110866;28;20051;-73
2022/07/18 09:21:18;;;;;;;6.28;3.65;;;34.90;70.20;;;;;;5111568;28;20052;-72
2022/07/18 09:23:48;;;;;;;6.60;3.63;;;35.00;70.00;;;;;;5110957;28;20031;-73
2022/07/18 09:26:35;;;;;;;9.15;3.58;;;35.00;69.90;;;;;;5108964;28;20047;-73
2022/07/18 09:29:04;;;;;;;5.70;3.00;;;34.90;70.00;;;;;;5093097;28;20036;-73
2022/07/18 09:31:52;;;;;;;5.57;3.45;;;34.90;69.70;;;;;;5078373;28;20051;-73
2022/07/18 09:34:39;;;;;;;8.43;3.15;;;35.00;70.10;;;;;;5092139;28;20040;-72
2022/07/18 09:37:11;;;;;;;6.75;3.40;;;35.00;69.70;;;;;;5092095;28;20100;-72
2022/07/18 09:39:39;;;;;;;4.60;3.08;;;35.10;69.80;;;;;;5110016;28;20435;-73
2022/07/18 09:42:14;;;;;;;4.95;3.30;;;35.00;69.10;;;;;;5109778;28;20130;-72
2022/07/18 09:44:42;;;;;;;5.68;3.42;;;35.10;69.10;;;;;;5109626;27;20051;-73
2022/07/18 09:47:10;;;;;;;5.10;3.28;;;35.20;69.00;;;;;;5108955;28;20039;-72
2022/07/18 09:49:40;;;;;;;6.68;3.45;;;35.20;69.20;;;;;;5109595;28;20043;-72
2022/07/18 09:52:09;;;;;;;10.07;3.08;;;35.10;69.00;;;;;;5092747;28;20439;-73
2022/07/18 09:54:42;;;;;;;7.45;3.67;;;35.20;69.00;;;;;;5110949;28;20476;-72
2022/07/18 09:57:22;;;;;;;6.95;4.28;;;35.20;68.90;;;;;;5093035;28;20058;-73
2022/07/18 09:59:50;;;;;;;7.32;3.15;;;35.20;68.60;;;;;;5109402;28;20127;-75
2022/07/18 10:02:18;;;;;;;8.07;3.75;;;35.30;68.40;;;;;;5110298;28;20485;-73
2022/07/18 10:04:46;;;;;;;8.85;3.55;;;35.30;68.80;;;;;;5110563;28;20047;-72
2022/07/18 10:07:15;;;;;;;6.25;2.97;;;35.30;68.90;;;;;;5109890;28;20043;-73
2022/07/18 10:09:45;;;;;;;5.53;3.58;;;35.30;68.50;;;;;;5109969;28;20044;-73
2022/07/18 10:12:16;;;;;;;9.02;3.60;;;35.30;68.70;;;;;;5109705;28;20097;-73
2022/07/18 10:14:44;;;;;;;7.25;2.97;;;35.20;68.20;;;;;;5110453;28;20072;-72
2022/07/18 10:17:12;;;;;;;6.53;3.35;;;35.20;68.20;;;;;;5110171;28;20454;-73
2022/07/18 10:19:40;;;;;;;5.82;3.20;;;35.20;67.90;;;;;;5109791;28;20070;-72
2022/07/18 10:22:08;;;;;;;8.30;3.20;;;35.30;67.80;;;;;;5091847;28;20040;-72
2022/07/18 10:24:40;;;;;;;8.77;3.13;;;35.30;67.20;;;;;;5109443;28;20050;-72
2022/07/18 10:27:16;;;;;;;4.95;2.65;;;35.30;67.70;;;;;;5110318;28;20047;-72
2022/07/18 10:30:12;;;;;;;6.88;3.60;;;35.40;67.90;;;;;;5108420;28;20450;-73
2022/07/18 10:32:41;;;;;;;4.88;3.40;;;35.50;67.70;;;;;;5108786;28;20039;-72
2022/07/18 10:35:14;;;;;;;4.75;2.90;;;35.30;67.00;;;;;;5108461;28;20378;-72
2022/07/18 10:37:42;;;;;;;4.35;3.15;;;35.20;67.50;;;;;;5109330;28;20039;-72
2022/07/18 10:40:27;;;;;;;7.82;3.00;;;35.20;68.30;;;;;;5109558;28;20101;-73
2022/07/18 10:43:32;;;;;;;4.45;3.20;;;35.20;68.10;;;;;;5091742;28;20044;-72
2022/07/18 10:46:02;;;;;;;7.95;3.83;;;35.20;67.70;;;;;;5108671;28;20071;-72
2022/07/18 10:48:33;;;;;;;6.10;2.75;;;35.20;66.80;;;;;;5091894;28;20046;-71
2022/07/18 10:51:11;;;;;;;4.65;2.90;;;35.20;66.20;;;;;;5109554;28;20519;-71
2022/07/18 10:53:54;;;;;;;5.97;2.97;;;35.20;66.40;;;;;;5090764;28;20050;-71
2022/07/18 10:56:41;;;;;;;6.95;2.80;;;35.10;66.20;;;;;;5109450;28;20093;-72
2022/07/18 10:59:20;;;;;;;5.80;3.80;;;35.20;66.70;;;;;;5109749;28;20493;-71
2022/07/18 11:01:50;;;;;;;12.57;3.33;;;35.30;66.60;;;;;;5109500;28;20116;-71
2022/07/18 11:04:32;;;;;;;3.97;2.97;;;35.30;67.20;;;;;;5107895;28;20044;-72
2022/07/18 11:07:03;;;;;;;4.75;2.95;;;35.30;66.30;;;;;;5109537;28;20048;-72
2022/07/18 11:09:47;;;;;;;5.28;2.78;;;35.30;65.40;;;;;;5091139;28;20052;-71
2022/07/18 11:12:30;;;;;;;6.40;2.80;;;35.20;65.70;;;;;;5109872;28;20531;-72
2022/07/18 11:15:12;;;;;;;6.88;3.50;;;35.20;66.30;;;;;;5112059;28;20090;-72
2022/07/18 11:17:58;;;;;;;4.78;2.88;;;35.30;66.60;;;;;;5111901;28;20079;-72
2022/07/18 11:20:34;;;;;;;6.38;3.20;;;35.30;66.40;;;;;;5112257;28;20515;-73
2022/07/18 11:23:14;;;;;;;7.50;3.05;;;35.30;67.10;;;;;;5113054;28;20477;-72
2022/07/18 11:25:41;;;;;;;6.72;3.25;;;35.30;66.10;;;;;;5112760;28;20558;-72
2022/07/18 11:28:27;;;;;;;10.85;3.00;;;35.30;66.00;;;;;;5094910;28;20043;-71
2022/07/18 11:31:00;;;;;;;5.55;2.70;;;35.20;66.20;;;;;;5112328;28;20481;-73
2022/07/18 11:33:30;;;;;;;5.97;3.40;;;35.10;65.90;;;;;;5113937;28;20043;-72
2022/07/18 11:36:13;;;;;;;6.20;3.08;;;35.10;65.90;;;;;;5112398;28;20461;-72
2022/07/18 11:38:59;;;;;;;5.97;3.58;;;34.90;65.70;;;;;;5113567;28;20488;-73
2022/07/18 11:41:27;;;;;;;3.70;3.13;;;34.80;65.60;;;;;;5094736;28;20500;-72
2022/07/18 11:43:56;;;;;;;6.85;3.05;;;34.80;65.60;;;;;;5112939;28;20101;-72
2022/07/18 11:46:26;;;;;;;5.13;2.78;;;34.80;66.20;;;;;;5113180;28;20055;-72
2022/07/18 11:49:05;;;;;;;5.97;2.88;;;34.60;66.30;;;;;;5111996;28;20047;-72
2022/07/18 11:51:42;;;;;;;6.43;3.45;;;34.60;66.70;;;;;;5112751;28;20048;-72
2022/07/18 11:54:11;;;;;;;5.30;2.90;;;34.70;66.90;;;;;;5112802;28;20050;-72
2022/07/18 11:56:50;;;;;;;5.00;3.33;;;34.70;66.50;;;;;;5113003;28;20039;-71
2022/07/18 11:59:18;;;;;;;8.25;3.05;;;34.70;66.70;;;;;;5112351;28;20520;-73
2022/07/18 12:01:52;;;;;;;5.72;2.90;;;34.60;65.90;;;;;;5111658;28;20040;-71
2022/07/18 12:04:23;;;;;;;4.40;2.85;;;34.70;66.40;;;;;;5095152;28;20109;-72
2022/07/18 12:07:14;;;;;;;5.10;3.83;;;34.70;66.20;;;;;;5113322;28;20070;-73
2022/07/18 12:09:42;;;;;;;5.85;2.80;;;34.70;66.10;;;;;;5112881;28;20131;-73
2022/07/18 12:12:14;;;;;;;6.68;3.08;;;34.70;66.30;;;;;;5111590;28;20485;-73
2022/07/18 12:15:01;;;;;;;4.78;2.80;;;34.70;66.60;;;;;;5112780;28;20043;-73
2022/07/18 12:17:42;;;;;;;5.47;3.78;;;34.70;66.00;;;;;;5111349;28;20051;-72
2022/07/18 12:20:21;;;;;;;5.47;3.30;;;34.50;66.40;;;;;;5094670;28;20097;-73
2022/07/18 12:23:11;;;;;;;4.68;3.30;;;34.50;66.30;;;;;;5111832;28;20519;-73
2022/07/18 12:25:41;;;;;;;4.07;3.17;;;34.50;66.30;;;;;;5111348;28;20054;-73
2022/07/18 12:28:18;;;;;;;4.15;3.17;;;34.50;66.40;;;;;;5094310;28;20051;-72
2022/07/18 12:30:46;;;;;;;5.22;3.00;;;34.50;66.40;;;;;;5111223;28;20040;-71
2022/07/18 12:33:14;;;;;;;4.40;2.67;;;34.50;66.20;;;;;;5094897;28;20055;-71
2022/07/18 12:35:42;;;;;;;4.93;3.30;;;34.60;65.50;;;;;;5112114;28;20063;-71
2022/07/18 12:38:12;;;;;;;4.55;2.55;;;34.60;65.60;;;;;;5094394;28;20051;-72
2022/07/18 12:41:01;;;;;;;7.35;2.92;;;34.50;65.20;;;;;;5093698;28;20059;-73
2022/07/18 12:43:36;;;;;;;5.10;3.00;;;34.50;65.50;;;;;;5110640;28;20110;-72
2022/07/18 12:46:11;;;;;;;6.65;3.30;;;34.50;65.70;;;;;;5093628;28;20051;-71
2022/07/18 12:48:40;;;;;;;4.20;2.95;;;34.50;65.00;;;;;;5111449;28;20494;-72
2022/07/18 12:51:10;;;;;;;8.65;3.80;;;34.50;65.30;;;;;;5110964;28;20062;-72
2022/07/18 12:53:42;;;;;;;5.43;2.88;;;34.50;65.50;;;;;;5111464;28;20035;-73
2022/07/18 12:56:11;;;;;;;5.07;3.25;;;34.50;65.50;;;;;;5076889;28;20104;-72
2022/07/18 12:58:39;;;;;;;4.95;3.33;;;34.60;66.10;;;;;;5110821;28;20071;-73
2022/07/18 13:01:06;;;;;;;4.20;2.67;;;34.60;65.80;;;;;;5112061;28;20093;-72
2022/07/18 13:03:35;;;;;;;5.50;3.65;;;34.50;65.20;;;;;;5110186;28;20086;-71
2022/07/18 13:06:03;;;;;;;5.00;3.00;;;34.50;65.00;;;;;;5111512;28;20046;-73